TAF Text Data
IDs:
Format:
Raw Decoded Include METAR

Data at: 0726 UTC 07 Dec 2022

KBOS 070539Z 0706/0812 12008KT P6SM -SHRA OVC040
  FM070800 13009KT 5SM -SHRA BR OVC020
  FM071100 13014KT 3SM -SHRA BR OVC008
  FM072100 17007KT 3SM -SHRA BR OVC005
  FM080300 25005KT 4SM BR OVC007
  FM080700 31007KT P6SM BKN040